Wimberley, Texas
Current Conditions -  °F | °C
As of 11:50 AM on Saturday 25 Oct 2014 (Local Time) from KHYI Reporting Station
Clear Clear  
Wind Chill: 82°   Ceiling: Unl
Heat Index: 82°   Visibility: 10mi
Dew Point: 55°   Wind: 12mph
Humidity: 39%   Direction: 180°S
Pressure: 30.19"   Gusts: 16mph
Location:  29.99°N, 98.1°W
Report Text: KHYI 251650Z 18010G14KT 10SM SKC 28/13 A3019
Loading
Personal Weather Stations






























Interactive Weather Map
Tropical Storm Tracking
New forecast layout! Learn more

10-Day Weather Forecast

Advertisements
Track Severe Weather on mobile